sensor_id;sensor_type;location;lat;lon;timestamp;pressure;altitude;pressure_sealevel;temperature
14851;BMP180;7517;48.400;11.770;2023-07-13T00:02:21;96407.00;;;22.60
14851;BMP180;7517;48.400;11.770;2023-07-13T00:04:49;96420.00;;;22.60
14851;BMP180;7517;48.400;11.770;2023-07-13T00:07:16;96424.00;;;22.60
14851;BMP180;7517;48.400;11.770;2023-07-13T00:09:45;96428.00;;;22.60
14851;BMP180;7517;48.400;11.770;2023-07-13T00:12:27;96410.00;;;22.60
14851;BMP180;7517;48.400;11.770;2023-07-13T00:14:57;96405.00;;;22.60
14851;BMP180;7517;48.400;11.770;2023-07-13T00:17:26;96404.00;;;22.60
14851;BMP180;7517;48.400;11.770;2023-07-13T00:19:54;96392.00;;;22.60
14851;BMP180;7517;48.400;11.770;2023-07-13T00:22:21;96394.00;;;22.60
14851;BMP180;7517;48.400;11.770;2023-07-13T00:24:49;96395.00;;;22.70
14851;BMP180;7517;48.400;11.770;2023-07-13T00:27:18;96394.00;;;22.70
14851;BMP180;7517;48.400;11.770;2023-07-13T00:29:47;96393.00;;;22.70
14851;BMP180;7517;48.400;11.770;2023-07-13T00:32:14;96405.00;;;22.70
14851;BMP180;7517;48.400;11.770;2023-07-13T00:34:41;96413.00;;;22.70
14851;BMP180;7517;48.400;11.770;2023-07-13T00:37:09;96410.00;;;22.70
14851;BMP180;7517;48.400;11.770;2023-07-13T00:39:37;96412.00;;;22.70
14851;BMP180;7517;48.400;11.770;2023-07-13T00:42:05;96400.00;;;22.70
14851;BMP180;7517;48.400;11.770;2023-07-13T00:44:32;96396.00;;;22.70
14851;BMP180;7517;48.400;11.770;2023-07-13T00:47:01;96408.00;;;22.70
14851;BMP180;7517;48.400;11.770;2023-07-13T00:49:31;96413.00;;;22.70
14851;BMP180;7517;48.400;11.770;2023-07-13T00:52:09;96408.00;;;22.70
14851;BMP180;7517;48.400;11.770;2023-07-13T00:54:41;96415.00;;;22.70
14851;BMP180;7517;48.400;11.770;2023-07-13T00:57:15;96404.00;;;22.70
14851;BMP180;7517;48.400;11.770;2023-07-13T00:59:52;96409.00;;;22.70
14851;BMP180;7517;48.400;11.770;2023-07-13T01:02:22;96418.00;;;22.70
14851;BMP180;7517;48.400;11.770;2023-07-13T01:04:50;96417.00;;;22.70
14851;BMP180;7517;48.400;11.770;2023-07-13T01:07:18;96411.00;;;22.70
14851;BMP180;7517;48.400;11.770;2023-07-13T01:09:45;96414.00;;;22.70
14851;BMP180;7517;48.400;11.770;2023-07-13T01:12:13;96412.00;;;22.70
14851;BMP180;7517;48.400;11.770;2023-07-13T01:14:40;96411.00;;;22.70
14851;BMP180;7517;48.400;11.770;2023-07-13T01:17:10;96399.00;;;22.70
14851;BMP180;7517;48.400;11.770;2023-07-13T01:19:43;96399.00;;;22.70
14851;BMP180;7517;48.400;11.770;2023-07-13T01:22:15;96384.00;;;22.70
14851;BMP180;7517;48.400;11.770;2023-07-13T01:24:45;96391.00;;;22.70
14851;BMP180;7517;48.400;11.770;2023-07-13T01:27:17;96390.00;;;22.70
14851;BMP180;7517;48.400;11.770;2023-07-13T01:29:45;96382.00;;;22.70
14851;BMP180;7517;48.400;11.770;2023-07-13T01:32:17;96381.00;;;22.70
14851;BMP180;7517;48.400;11.770;2023-07-13T01:34:48;96391.00;;;22.70
14851;BMP180;7517;48.400;11.770;2023-07-13T01:37:17;96379.00;;;22.70
14851;BMP180;7517;48.400;11.770;2023-07-13T01:39:44;96374.00;;;22.70
14851;BMP180;7517;48.400;11.770;2023-07-13T01:42:12;96369.00;;;22.70
14851;BMP180;7517;48.400;11.770;2023-07-13T01:44:40;96376.00;;;22.70
14851;BMP180;7517;48.400;11.770;2023-07-13T01:47:09;96374.00;;;22.70
14851;BMP180;7517;48.400;11.770;2023-07-13T01:49:36;96384.00;;;22.70
14851;BMP180;7517;48.400;11.770;2023-07-13T01:52:05;96375.00;;;22.70
14851;BMP180;7517;48.400;11.770;2023-07-13T01:54:34;96384.00;;;22.70
14851;BMP180;7517;48.400;11.770;2023-07-13T01:57:01;96382.00;;;22.70
14851;BMP180;7517;48.400;11.770;2023-07-13T01:59:29;96377.00;;;22.70
14851;BMP180;7517;48.400;11.770;2023-07-13T02:01:56;96377.00;;;22.70
14851;BMP180;7517;48.400;11.770;2023-07-13T02:04:23;96377.00;;;22.70
14851;BMP180;7517;48.400;11.770;2023-07-13T02:06:50;96378.00;;;22.70
14851;BMP180;7517;48.400;11.770;2023-07-13T02:09:18;96384.00;;;22.70
14851;BMP180;7517;48.400;11.770;2023-07-13T02:11:46;96383.00;;;22.70
14851;BMP180;7517;48.400;11.770;2023-07-13T02:14:14;96398.00;;;22.70
14851;BMP180;7517;48.400;11.770;2023-07-13T02:16:44;96395.00;;;22.70
14851;BMP180;7517;48.400;11.770;2023-07-13T02:19:11;96393.00;;;22.70
14851;BMP180;7517;48.400;11.770;2023-07-13T02:21:38;96398.00;;;22.60
14851;BMP180;7517;48.400;11.770;2023-07-13T02:24:06;96399.00;;;22.60
14851;BMP180;7517;48.400;11.770;2023-07-13T02:26:33;96399.00;;;22.60
14851;BMP180;7517;48.400;11.770;2023-07-13T02:29:02;96393.00;;;22.60
14851;BMP180;7517;48.400;11.770;2023-07-13T02:31:29;96391.00;;;22.60
14851;BMP180;7517;48.400;11.770;2023-07-13T02:34:03;96388.00;;;22.60
14851;BMP180;7517;48.400;11.770;2023-07-13T02:36:31;96397.00;;;22.60
14851;BMP180;7517;48.400;11.770;2023-07-13T02:39:05;96396.00;;;22.60
14851;BMP180;7517;48.400;11.770;2023-07-13T02:41:33;96404.00;;;22.60
14851;BMP180;7517;48.400;11.770;2023-07-13T02:44:02;96412.00;;;22.60
14851;BMP180;7517;48.400;11.770;2023-07-13T02:46:30;96406.00;;;22.60
14851;BMP180;7517;48.400;11.770;2023-07-13T02:48:57;96404.00;;;22.60
14851;BMP180;7517;48.400;11.770;2023-07-13T02:51:24;96404.00;;;22.60
14851;BMP180;7517;48.400;11.770;2023-07-13T02:53:52;96398.00;;;22.60
14851;BMP180;7517;48.400;11.770;2023-07-13T02:56:23;96411.00;;;22.60
14851;BMP180;7517;48.400;11.770;2023-07-13T02:58:51;96424.00;;;22.60
14851;BMP180;7517;48.400;11.770;2023-07-13T03:01:22;96427.00;;;22.60
14851;BMP180;7517;48.400;11.770;2023-07-13T03:03:50;96434.00;;;22.60
14851;BMP180;7517;48.400;11.770;2023-07-13T03:06:18;96437.00;;;22.60
14851;BMP180;7517;48.400;11.770;2023-07-13T03:08:47;96432.00;;;22.60
14851;BMP180;7517;48.400;11.770;2023-07-13T03:11:19;96425.00;;;22.60
14851;BMP180;7517;48.400;11.770;2023-07-13T03:13:47;96432.00;;;22.60
14851;BMP180;7517;48.400;11.770;2023-07-13T03:16:16;96431.00;;;22.60
14851;BMP180;7517;48.400;11.770;2023-07-13T03:18:46;96428.00;;;22.60
14851;BMP180;7517;48.400;11.770;2023-07-13T03:21:14;96436.00;;;22.60
14851;BMP180;7517;48.400;11.770;2023-07-13T03:23:41;96441.00;;;22.60
14851;BMP180;7517;48.400;11.770;2023-07-13T03:26:13;96436.00;;;22.50
14851;BMP180;7517;48.400;11.770;2023-07-13T03:28:42;96435.00;;;22.50
14851;BMP180;7517;48.400;11.770;2023-07-13T03:31:12;96439.00;;;22.50
14851;BMP180;7517;48.400;11.770;2023-07-13T03:33:40;96448.00;;;22.50
14851;BMP180;7517;48.400;11.770;2023-07-13T03:36:13;96440.00;;;22.60
14851;BMP180;7517;48.400;11.770;2023-07-13T03:38:41;96442.00;;;22.50
14851;BMP180;7517;48.400;11.770;2023-07-13T03:41:09;96443.00;;;22.60
14851;BMP180;7517;48.400;11.770;2023-07-13T03:43:36;96452.00;;;22.60
14851;BMP180;7517;48.400;11.770;2023-07-13T03:46:03;96456.00;;;22.60
14851;BMP180;7517;48.400;11.770;2023-07-13T03:48:31;96454.00;;;22.60
14851;BMP180;7517;48.400;11.770;2023-07-13T03:50:58;96450.00;;;22.60
14851;BMP180;7517;48.400;11.770;2023-07-13T03:53:27;96450.00;;;22.60
14851;BMP180;7517;48.400;11.770;2023-07-13T03:55:54;96450.00;;;22.60
14851;BMP180;7517;48.400;11.770;2023-07-13T03:58:31;96449.00;;;22.60
14851;BMP180;7517;48.400;11.770;2023-07-13T04:01:00;96455.00;;;22.60
14851;BMP180;7517;48.400;11.770;2023-07-13T04:03:28;96450.00;;;22.60
14851;BMP180;7517;48.400;11.770;2023-07-13T04:05:59;96447.00;;;22.60
14851;BMP180;7517;48.400;11.770;2023-07-13T04:08:30;96451.00;;;22.60
14851;BMP180;7517;48.400;11.770;2023-07-13T04:10:58;96456.00;;;22.60
14851;BMP180;7517;48.400;11.770;2023-07-13T04:13:26;96457.00;;;22.60
14851;BMP180;7517;48.400;11.770;2023-07-13T04:15:54;96459.00;;;22.60
14851;BMP180;7517;48.400;11.770;2023-07-13T04:18:22;96461.00;;;22.60
14851;BMP180;7517;48.400;11.770;2023-07-13T04:20:50;96467.00;;;22.70
14851;BMP180;7517;48.400;11.770;2023-07-13T04:23:18;96462.00;;;22.70
14851;BMP180;7517;48.400;11.770;2023-07-13T04:25:49;96459.00;;;22.70
14851;BMP180;7517;48.400;11.770;2023-07-13T04:28:18;96463.00;;;22.70
14851;BMP180;7517;48.400;11.770;2023-07-13T04:30:47;96471.00;;;22.70
14851;BMP180;7517;48.400;11.770;2023-07-13T04:33:14;96479.00;;;22.70
14851;BMP180;7517;48.400;11.770;2023-07-13T04:35:42;96484.00;;;22.70
14851;BMP180;7517;48.400;11.770;2023-07-13T04:38:12;96477.00;;;22.70
14851;BMP180;7517;48.400;11.770;2023-07-13T04:40:44;96487.00;;;22.70
14851;BMP180;7517;48.400;11.770;2023-07-13T04:43:13;96484.00;;;22.70
14851;BMP180;7517;48.400;11.770;2023-07-13T04:45:41;96488.00;;;22.70
14851;BMP180;7517;48.400;11.770;2023-07-13T04:48:09;96489.00;;;22.70
14851;BMP180;7517;48.400;11.770;2023-07-13T04:50:36;96477.00;;;22.70
14851;BMP180;7517;48.400;11.770;2023-07-13T04:53:05;96489.00;;;22.80
14851;BMP180;7517;48.400;11.770;2023-07-13T04:55:32;96497.00;;;22.80
14851;BMP180;7517;48.400;11.770;2023-07-13T04:58:00;96492.00;;;22.80
14851;BMP180;7517;48.400;11.770;2023-07-13T05:00:30;96498.00;;;22.80
14851;BMP180;7517;48.400;11.770;2023-07-13T05:02:58;96499.00;;;22.80
14851;BMP180;7517;48.400;11.770;2023-07-13T05:05:26;96502.00;;;22.80
14851;BMP180;7517;48.400;11.770;2023-07-13T05:07:54;96498.00;;;22.80
14851;BMP180;7517;48.400;11.770;2023-07-13T05:10:22;96496.00;;;22.80
14851;BMP180;7517;48.400;11.770;2023-07-13T05:12:50;96503.00;;;22.80
14851;BMP180;7517;48.400;11.770;2023-07-13T05:15:22;96512.00;;;22.80
14851;BMP180;7517;48.400;11.770;2023-07-13T05:17:52;96508.00;;;22.80
14851;BMP180;7517;48.400;11.770;2023-07-13T05:20:21;96526.00;;;22.80
14851;BMP180;7517;48.400;11.770;2023-07-13T05:22:48;96525.00;;;22.80
14851;BMP180;7517;48.400;11.770;2023-07-13T05:25:16;96531.00;;;22.80
14851;BMP180;7517;48.400;11.770;2023-07-13T05:27:43;96524.00;;;22.90
14851;BMP180;7517;48.400;11.770;2023-07-13T05:30:13;96524.00;;;22.90
14851;BMP180;7517;48.400;11.770;2023-07-13T05:32:41;96533.00;;;22.80
14851;BMP180;7517;48.400;11.770;2023-07-13T05:35:10;96525.00;;;22.90
14851;BMP180;7517;48.400;11.770;2023-07-13T05:37:37;96515.00;;;22.90
14851;BMP180;7517;48.400;11.770;2023-07-13T05:40:06;96519.00;;;22.90
14851;BMP180;7517;48.400;11.770;2023-07-13T05:42:34;96519.00;;;22.90
14851;BMP180;7517;48.400;11.770;2023-07-13T05:45:02;96516.00;;;22.90
14851;BMP180;7517;48.400;11.770;2023-07-13T05:47:30;96518.00;;;22.90
14851;BMP180;7517;48.400;11.770;2023-07-13T05:49:57;96519.00;;;22.90
14851;BMP180;7517;48.400;11.770;2023-07-13T05:52:26;96529.00;;;22.90
14851;BMP180;7517;48.400;11.770;2023-07-13T05:54:53;96524.00;;;22.90
14851;BMP180;7517;48.400;11.770;2023-07-13T05:57:21;96528.00;;;22.90
14851;BMP180;7517;48.400;11.770;2023-07-13T05:59:48;96535.00;;;22.90
14851;BMP180;7517;48.400;11.770;2023-07-13T06:02:15;96531.00;;;22.90
14851;BMP180;7517;48.400;11.770;2023-07-13T06:04:43;96536.00;;;22.90
14851;BMP180;7517;48.400;11.770;2023-07-13T06:07:10;96545.00;;;22.90
14851;BMP180;7517;48.400;11.770;2023-07-13T06:09:39;96551.00;;;22.80
14851;BMP180;7517;48.400;11.770;2023-07-13T06:12:07;96549.00;;;22.80
14851;BMP180;7517;48.400;11.770;2023-07-13T06:14:35;96555.00;;;22.90
14851;BMP180;7517;48.400;11.770;2023-07-13T06:17:02;96546.00;;;22.90
14851;BMP180;7517;48.400;11.770;2023-07-13T06:19:29;96548.00;;;22.90
14851;BMP180;7517;48.400;11.770;2023-07-13T06:21:58;96539.00;;;22.90
14851;BMP180;7517;48.400;11.770;2023-07-13T06:24:25;96547.00;;;22.90
14851;BMP180;7517;48.400;11.770;2023-07-13T06:26:54;96548.00;;;22.90
14851;BMP180;7517;48.400;11.770;2023-07-13T06:29:22;96549.00;;;22.90
14851;BMP180;7517;48.400;11.770;2023-07-13T06:31:49;96560.00;;;22.90
14851;BMP180;7517;48.400;11.770;2023-07-13T06:34:16;96559.00;;;22.90
14851;BMP180;7517;48.400;11.770;2023-07-13T06:36:44;96557.00;;;22.90
14851;BMP180;7517;48.400;11.770;2023-07-13T06:39:12;96558.00;;;22.90
14851;BMP180;7517;48.400;11.770;2023-07-13T06:41:39;96561.00;;;22.90
14851;BMP180;7517;48.400;11.770;2023-07-13T06:44:08;96564.00;;;22.80
14851;BMP180;7517;48.400;11.770;2023-07-13T06:46:35;96560.00;;;22.80
14851;BMP180;7517;48.400;11.770;2023-07-13T06:49:02;96562.00;;;22.80
14851;BMP180;7517;48.400;11.770;2023-07-13T06:51:30;96567.00;;;22.80
14851;BMP180;7517;48.400;11.770;2023-07-13T06:53:57;96569.00;;;22.80
14851;BMP180;7517;48.400;11.770;2023-07-13T06:56:25;96569.00;;;22.80
14851;BMP180;7517;48.400;11.770;2023-07-13T06:58:52;96582.00;;;22.80
14851;BMP180;7517;48.400;11.770;2023-07-13T07:01:21;96584.00;;;22.80
14851;BMP180;7517;48.400;11.770;2023-07-13T07:03:48;96587.00;;;22.80
14851;BMP180;7517;48.400;11.770;2023-07-13T07:06:19;96587.00;;;22.70
14851;BMP180;7517;48.400;11.770;2023-07-13T07:08:49;96592.00;;;22.70
14851;BMP180;7517;48.400;11.770;2023-07-13T07:11:20;96587.00;;;22.70
14851;BMP180;7517;48.400;11.770;2023-07-13T07:13:48;96581.00;;;22.70
14851;BMP180;7517;48.400;11.770;2023-07-13T07:16:17;96581.00;;;22.70
14851;BMP180;7517;48.400;11.770;2023-07-13T07:18:46;96605.00;;;22.80
14851;BMP180;7517;48.400;11.770;2023-07-13T07:21:14;96602.00;;;22.80
14851;BMP180;7517;48.400;11.770;2023-07-13T07:23:42;96608.00;;;22.80
14851;BMP180;7517;48.400;11.770;2023-07-13T07:26:10;96601.00;;;22.80
14851;BMP180;7517;48.400;11.770;2023-07-13T07:28:37;96603.00;;;22.80
14851;BMP180;7517;48.400;11.770;2023-07-13T07:31:05;96605.00;;;22.70
14851;BMP180;7517;48.400;11.770;2023-07-13T07:33:32;96604.00;;;22.70
14851;BMP180;7517;48.400;11.770;2023-07-13T07:36:01;96603.00;;;22.70
14851;BMP180;7517;48.400;11.770;2023-07-13T07:38:29;96600.00;;;22.70
14851;BMP180;7517;48.400;11.770;2023-07-13T07:40:56;96596.00;;;22.70
14851;BMP180;7517;48.400;11.770;2023-07-13T07:43:24;96606.00;;;22.70
14851;BMP180;7517;48.400;11.770;2023-07-13T07:45:51;96609.00;;;22.60
14851;BMP180;7517;48.400;11.770;2023-07-13T07:48:18;96601.00;;;22.60
14851;BMP180;7517;48.400;11.770;2023-07-13T07:50:56;96614.00;;;22.60
14851;BMP180;7517;48.400;11.770;2023-07-13T07:53:25;96608.00;;;22.60
14851;BMP180;7517;48.400;11.770;2023-07-13T07:55:52;96610.00;;;22.60
14851;BMP180;7517;48.400;11.770;2023-07-13T07:58:19;96614.00;;;22.60
14851;BMP180;7517;48.400;11.770;2023-07-13T08:00:46;96631.00;;;22.50
14851;BMP180;7517;48.400;11.770;2023-07-13T08:03:14;96628.00;;;22.50
14851;BMP180;7517;48.400;11.770;2023-07-13T08:05:41;96627.00;;;22.50
14851;BMP180;7517;48.400;11.770;2023-07-13T08:08:09;96629.00;;;22.60
14851;BMP180;7517;48.400;11.770;2023-07-13T08:10:38;96618.00;;;22.60
14851;BMP180;7517;48.400;11.770;2023-07-13T08:13:05;96636.00;;;22.60
14851;BMP180;7517;48.400;11.770;2023-07-13T08:15:32;96631.00;;;22.60
14851;BMP180;7517;48.400;11.770;2023-07-13T08:17:59;96639.00;;;22.70
14851;BMP180;7517;48.400;11.770;2023-07-13T08:20:27;96642.00;;;22.70
14851;BMP180;7517;48.400;11.770;2023-07-13T08:22:55;96629.00;;;22.70
14851;BMP180;7517;48.400;11.770;2023-07-13T08:25:22;96651.00;;;22.70
14851;BMP180;7517;48.400;11.770;2023-07-13T08:27:51;96644.00;;;22.70
14851;BMP180;7517;48.400;11.770;2023-07-13T08:30:19;96647.00;;;22.80
14851;BMP180;7517;48.400;11.770;2023-07-13T08:32:46;96648.00;;;22.70
14851;BMP180;7517;48.400;11.770;2023-07-13T08:35:14;96654.00;;;22.70
14851;BMP180;7517;48.400;11.770;2023-07-13T08:37:42;96667.00;;;22.70
14851;BMP180;7517;48.400;11.770;2023-07-13T08:40:11;96661.00;;;22.60
14851;BMP180;7517;48.400;11.770;2023-07-13T08:42:44;96671.00;;;22.60
14851;BMP180;7517;48.400;11.770;2023-07-13T08:45:21;96670.00;;;22.60
14851;BMP180;7517;48.400;11.770;2023-07-13T08:47:54;96670.00;;;22.60
14851;BMP180;7517;48.400;11.770;2023-07-13T08:50:27;96667.00;;;22.50
14851;BMP180;7517;48.400;11.770;2023-07-13T08:52:59;96680.00;;;22.50
14851;BMP180;7517;48.400;11.770;2023-07-13T08:55:31;96674.00;;;22.50
14851;BMP180;7517;48.400;11.770;2023-07-13T08:58:09;96680.00;;;22.50
14851;BMP180;7517;48.400;11.770;2023-07-13T09:00:48;96684.00;;;22.50
14851;BMP180;7517;48.400;11.770;2023-07-13T09:03:23;96683.00;;;22.40
14851;BMP180;7517;48.400;11.770;2023-07-13T09:05:56;96683.00;;;22.40
14851;BMP180;7517;48.400;11.770;2023-07-13T09:08:42;96682.00;;;22.30
14851;BMP180;7517;48.400;11.770;2023-07-13T09:11:30;96676.00;;;22.30
14851;BMP180;7517;48.400;11.770;2023-07-13T09:14:19;96677.00;;;22.20
14851;BMP180;7517;48.400;11.770;2023-07-13T09:16:54;96681.00;;;22.20
14851;BMP180;7517;48.400;11.770;2023-07-13T09:19:28;96683.00;;;22.20
14851;BMP180;7517;48.400;11.770;2023-07-13T09:22:02;96679.00;;;22.20
14851;BMP180;7517;48.400;11.770;2023-07-13T09:24:37;96685.00;;;22.20
14851;BMP180;7517;48.400;11.770;2023-07-13T09:27:16;96675.00;;;22.20
14851;BMP180;7517;48.400;11.770;2023-07-13T09:29:50;96681.00;;;22.20
14851;BMP180;7517;48.400;11.770;2023-07-13T09:32:24;96686.00;;;22.30
14851;BMP180;7517;48.400;11.770;2023-07-13T09:34:53;96685.00;;;22.40
14851;BMP180;7517;48.400;11.770;2023-07-13T09:37:29;96683.00;;;22.40
14851;BMP180;7517;48.400;11.770;2023-07-13T09:39:59;96681.00;;;22.50
14851;BMP180;7517;48.400;11.770;2023-07-13T09:42:34;96680.00;;;22.60
14851;BMP180;7517;48.400;11.770;2023-07-13T09:45:02;96685.00;;;22.60
14851;BMP180;7517;48.400;11.770;2023-07-13T09:47:40;96691.00;;;22.70
14851;BMP180;7517;48.400;11.770;2023-07-13T09:50:16;96687.00;;;22.90
14851;BMP180;7517;48.400;11.770;2023-07-13T09:52:48;96686.00;;;23.00
14851;BMP180;7517;48.400;11.770;2023-07-13T09:55:30;96689.00;;;23.20
14851;BMP180;7517;48.400;11.770;2023-07-13T09:58:03;96693.00;;;23.30
14851;BMP180;7517;48.400;11.770;2023-07-13T10:00:31;96693.00;;;23.50
14851;BMP180;7517;48.400;11.770;2023-07-13T10:03:04;96697.00;;;23.60
14851;BMP180;7517;48.400;11.770;2023-07-13T10:05:41;96695.00;;;23.70
14851;BMP180;7517;48.400;11.770;2023-07-13T10:08:25;96693.00;;;23.70
14851;BMP180;7517;48.400;11.770;2023-07-13T10:11:01;96697.00;;;23.80
14851;BMP180;7517;48.400;11.770;2023-07-13T10:13:37;96686.00;;;23.90
14851;BMP180;7517;48.400;11.770;2023-07-13T10:16:08;96686.00;;;24.00
14851;BMP180;7517;48.400;11.770;2023-07-13T10:18:43;96687.00;;;24.10
14851;BMP180;7517;48.400;11.770;2023-07-13T10:21:16;96696.00;;;24.20
14851;BMP180;7517;48.400;11.770;2023-07-13T10:23:48;96691.00;;;24.30
14851;BMP180;7517;48.400;11.770;2023-07-13T10:26:23;96690.00;;;24.50
14851;BMP180;7517;48.400;11.770;2023-07-13T10:28:56;96686.00;;;24.70
14851;BMP180;7517;48.400;11.770;2023-07-13T10:31:26;96698.00;;;24.80
14851;BMP180;7517;48.400;11.770;2023-07-13T10:33:55;96691.00;;;25.00
14851;BMP180;7517;48.400;11.770;2023-07-13T10:36:34;96699.00;;;25.10
14851;BMP180;7517;48.400;11.770;2023-07-13T10:39:06;96699.00;;;25.20
14851;BMP180;7517;48.400;11.770;2023-07-13T10:41:39;96696.00;;;25.20
14851;BMP180;7517;48.400;11.770;2023-07-13T10:44:21;96701.00;;;25.30
14851;BMP180;7517;48.400;11.770;2023-07-13T10:46:54;96696.00;;;25.40
14851;BMP180;7517;48.400;11.770;2023-07-13T10:49:25;96683.00;;;25.40
14851;BMP180;7517;48.400;11.770;2023-07-13T10:51:53;96689.00;;;25.40
14851;BMP180;7517;48.400;11.770;2023-07-13T10:54:27;96700.00;;;25.40
14851;BMP180;7517;48.400;11.770;2023-07-13T10:57:16;96691.00;;;25.50
14851;BMP180;7517;48.400;11.770;2023-07-13T10:59:48;96690.00;;;25.50
14851;BMP180;7517;48.400;11.770;2023-07-13T11:02:26;96697.00;;;25.60
14851;BMP180;7517;48.400;11.770;2023-07-13T11:04:57;96695.00;;;25.60
14851;BMP180;7517;48.400;11.770;2023-07-13T11:07:27;96696.00;;;25.60
14851;BMP180;7517;48.400;11.770;2023-07-13T11:09:57;96699.00;;;25.60
14851;BMP180;7517;48.400;11.770;2023-07-13T11:12:52;96688.00;;;25.50
14851;BMP180;7517;48.400;11.770;2023-07-13T11:15:44;96695.00;;;25.60
14851;BMP180;7517;48.400;11.770;2023-07-13T11:18:23;96687.00;;;25.60
14851;BMP180;7517;48.400;11.770;2023-07-13T11:21:13;96696.00;;;25.70
14851;BMP180;7517;48.400;11.770;2023-07-13T11:23:44;96690.00;;;25.70
14851;BMP180;7517;48.400;11.770;2023-07-13T11:26:39;96695.00;;;25.80
14851;BMP180;7517;48.400;11.770;2023-07-13T11:29:12;96692.00;;;25.80
14851;BMP180;7517;48.400;11.770;2023-07-13T11:31:51;96695.00;;;25.90
14851;BMP180;7517;48.400;11.770;2023-07-13T11:34:33;96699.00;;;25.90
14851;BMP180;7517;48.400;11.770;2023-07-13T11:37:08;96700.00;;;26.00
14851;BMP180;7517;48.400;11.770;2023-07-13T11:39:43;96698.00;;;26.00
14851;BMP180;7517;48.400;11.770;2023-07-13T11:42:13;96700.00;;;26.10
14851;BMP180;7517;48.400;11.770;2023-07-13T11:44:45;96701.00;;;26.10
14851;BMP180;7517;48.400;11.770;2023-07-13T11:47:18;96701.00;;;26.10
14851;BMP180;7517;48.400;11.770;2023-07-13T11:49:50;96694.00;;;26.20
14851;BMP180;7517;48.400;11.770;2023-07-13T11:52:23;96696.00;;;26.20
14851;BMP180;7517;48.400;11.770;2023-07-13T11:54:56;96698.00;;;26.30
14851;BMP180;7517;48.400;11.770;2023-07-13T11:57:28;96681.00;;;26.40
14851;BMP180;7517;48.400;11.770;2023-07-13T12:00:00;96682.00;;;26.40
14851;BMP180;7517;48.400;11.770;2023-07-13T12:02:32;96670.00;;;26.40
14851;BMP180;7517;48.400;11.770;2023-07-13T12:05:02;96670.00;;;26.40
14851;BMP180;7517;48.400;11.770;2023-07-13T12:07:33;96661.00;;;26.40
14851;BMP180;7517;48.400;11.770;2023-07-13T12:10:02;96667.00;;;26.40
14851;BMP180;7517;48.400;11.770;2023-07-13T12:12:30;96670.00;;;26.30
14851;BMP180;7517;48.400;11.770;2023-07-13T12:14:57;96669.00;;;26.30
14851;BMP180;7517;48.400;11.770;2023-07-13T12:17:26;96670.00;;;26.30
14851;BMP180;7517;48.400;11.770;2023-07-13T12:19:55;96667.00;;;26.30
14851;BMP180;7517;48.400;11.770;2023-07-13T12:22:22;96665.00;;;26.30
14851;BMP180;7517;48.400;11.770;2023-07-13T12:24:52;96674.00;;;26.30
14851;BMP180;7517;48.400;11.770;2023-07-13T12:27:23;96665.00;;;26.30
14851;BMP180;7517;48.400;11.770;2023-07-13T12:29:58;96661.00;;;26.30
14851;BMP180;7517;48.400;11.770;2023-07-13T12:32:27;96661.00;;;26.30
14851;BMP180;7517;48.400;11.770;2023-07-13T12:35:13;96650.00;;;26.30
14851;BMP180;7517;48.400;11.770;2023-07-13T12:37:42;96653.00;;;26.30
14851;BMP180;7517;48.400;11.770;2023-07-13T12:40:16;96652.00;;;26.30
14851;BMP180;7517;48.400;11.770;2023-07-13T12:42:47;96655.00;;;26.30
14851;BMP180;7517;48.400;11.770;2023-07-13T12:45:20;96651.00;;;26.20
14851;BMP180;7517;48.400;11.770;2023-07-13T12:47:54;96648.00;;;26.20
14851;BMP180;7517;48.400;11.770;2023-07-13T12:50:33;96650.00;;;26.10
14851;BMP180;7517;48.400;11.770;2023-07-13T12:53:05;96641.00;;;26.10
14851;BMP180;7517;48.400;11.770;2023-07-13T12:55:44;96647.00;;;26.10
14851;BMP180;7517;48.400;11.770;2023-07-13T12:58:22;96649.00;;;26.20
14851;BMP180;7517;48.400;11.770;2023-07-13T13:00:54;96648.00;;;26.30
14851;BMP180;7517;48.400;11.770;2023-07-13T13:03:29;96647.00;;;26.30
14851;BMP180;7517;48.400;11.770;2023-07-13T13:06:02;96641.00;;;26.30
14851;BMP180;7517;48.400;11.770;2023-07-13T13:08:33;96638.00;;;26.30
14851;BMP180;7517;48.400;11.770;2023-07-13T13:11:03;96639.00;;;26.40
14851;BMP180;7517;48.400;11.770;2023-07-13T13:13:30;96633.00;;;26.40
14851;BMP180;7517;48.400;11.770;2023-07-13T13:16:02;96637.00;;;26.50
14851;BMP180;7517;48.400;11.770;2023-07-13T13:18:32;96632.00;;;26.50
14851;BMP180;7517;48.400;11.770;2023-07-13T13:20:59;96630.00;;;26.60
14851;BMP180;7517;48.400;11.770;2023-07-13T13:23:26;96630.00;;;26.60
14851;BMP180;7517;48.400;11.770;2023-07-13T13:25:53;96632.00;;;26.60
14851;BMP180;7517;48.400;11.770;2023-07-13T13:28:22;96632.00;;;26.60
14851;BMP180;7517;48.400;11.770;2023-07-13T13:30:51;96622.00;;;26.70
14851;BMP180;7517;48.400;11.770;2023-07-13T13:33:20;96628.00;;;26.70
14851;BMP180;7517;48.400;11.770;2023-07-13T13:35:49;96629.00;;;26.80
14851;BMP180;7517;48.400;11.770;2023-07-13T13:38:20;96632.00;;;26.90
14851;BMP180;7517;48.400;11.770;2023-07-13T13:40:47;96625.00;;;26.90
14851;BMP180;7517;48.400;11.770;2023-07-13T13:43:16;96627.00;;;27.00
14851;BMP180;7517;48.400;11.770;2023-07-13T13:45:46;96615.00;;;27.00
14851;BMP180;7517;48.400;11.770;2023-07-13T13:48:17;96631.00;;;27.00
14851;BMP180;7517;48.400;11.770;2023-07-13T13:50:45;96640.00;;;27.10
14851;BMP180;7517;48.400;11.770;2023-07-13T13:53:13;96639.00;;;27.10
14851;BMP180;7517;48.400;11.770;2023-07-13T13:55:41;96637.00;;;27.10
14851;BMP180;7517;48.400;11.770;2023-07-13T13:58:09;96635.00;;;27.10
14851;BMP180;7517;48.400;11.770;2023-07-13T14:00:37;96629.00;;;27.20
14851;BMP180;7517;48.400;11.770;2023-07-13T14:03:15;96628.00;;;27.20
14851;BMP180;7517;48.400;11.770;2023-07-13T14:05:44;96637.00;;;27.30
14851;BMP180;7517;48.400;11.770;2023-07-13T14:08:15;96634.00;;;27.30
14851;BMP180;7517;48.400;11.770;2023-07-13T14:10:43;96645.00;;;27.30
14851;BMP180;7517;48.400;11.770;2023-07-13T14:13:17;96641.00;;;27.30
14851;BMP180;7517;48.400;11.770;2023-07-13T14:15:49;96642.00;;;27.30
14851;BMP180;7517;48.400;11.770;2023-07-13T14:18:17;96633.00;;;27.30
14851;BMP180;7517;48.400;11.770;2023-07-13T14:20:45;96633.00;;;27.30
14851;BMP180;7517;48.400;11.770;2023-07-13T14:23:14;96634.00;;;27.30
14851;BMP180;7517;48.400;11.770;2023-07-13T14:25:41;96634.00;;;27.40
14851;BMP180;7517;48.400;11.770;2023-07-13T14:28:20;96620.00;;;27.30